createdAt,value
2022-08-03T00:01:45.460Z,2.83
2022-08-03T00:04:13.332Z,2.90
2022-08-03T00:06:41.384Z,2.65
2022-08-03T00:09:11.054Z,2.80
2022-08-03T00:11:39.684Z,3.15
2022-08-03T00:14:08.182Z,2.80
2022-08-03T00:16:36.701Z,2.78
2022-08-03T00:19:04.957Z,2.40
2022-08-03T00:21:33.023Z,2.60
2022-08-03T00:24:00.895Z,2.55
2022-08-03T00:26:31.631Z,2.80
2022-08-03T00:28:59.444Z,2.80
2022-08-03T00:31:47.041Z,2.85
2022-08-03T00:34:15.261Z,2.75
2022-08-03T00:36:43.421Z,2.75
2022-08-03T00:39:11.253Z,2.65
2022-08-03T00:41:40.534Z,2.80
2022-08-03T00:44:08.351Z,2.72
2022-08-03T00:46:36.257Z,2.80
2022-08-03T00:49:04.151Z,2.90
2022-08-03T00:51:33.217Z,2.70
2022-08-03T00:54:01.557Z,2.70
2022-08-03T00:56:29.421Z,2.80
2022-08-03T00:58:59.664Z,2.50
2022-08-03T01:01:32.371Z,3.00
2022-08-03T01:04:01.098Z,2.85
2022-08-03T01:06:35.270Z,2.88
2022-08-03T01:09:13.443Z,2.80
2022-08-03T01:12:00.795Z,2.60
2022-08-03T01:14:39.442Z,3.05
2022-08-03T01:17:14.364Z,2.60
2022-08-03T01:19:47.864Z,3.20
2022-08-03T01:22:45.449Z,2.60
2022-08-03T01:25:25.056Z,2.72
2022-08-03T01:28:02.805Z,3.00
2022-08-03T01:30:34.757Z,2.97
2022-08-03T01:33:05.822Z,2.80
2022-08-03T01:35:38.770Z,2.60
2022-08-03T01:38:12.918Z,2.80
2022-08-03T01:40:42.397Z,3.20
2022-08-03T01:43:13.772Z,2.70
2022-08-03T01:45:44.910Z,2.75
2022-08-03T01:48:17.136Z,3.08
2022-08-03T01:50:47.874Z,2.85
2022-08-03T01:53:18.290Z,2.90
2022-08-03T01:55:48.504Z,2.45
2022-08-03T01:58:19.776Z,2.50
2022-08-03T02:00:51.142Z,2.53
2022-08-03T02:03:21.450Z,2.75
2022-08-03T02:06:01.245Z,2.85
2022-08-03T02:08:38.797Z,2.97
2022-08-03T02:11:07.629Z,2.70
2022-08-03T02:13:36.244Z,2.60
2022-08-03T02:16:06.436Z,2.90
2022-08-03T02:18:35.261Z,2.78
2022-08-03T02:21:10.591Z,2.67
2022-08-03T02:23:39.837Z,2.90
2022-08-03T02:26:13.121Z,2.67
2022-08-03T02:28:44.181Z,2.85
2022-08-03T02:31:17.751Z,2.90
2022-08-03T02:33:50.333Z,2.72
2022-08-03T02:36:22.970Z,2.70
2022-08-03T02:38:54.871Z,3.05
2022-08-03T02:41:28.165Z,2.80
2022-08-03T02:44:06.011Z,2.72
2022-08-03T02:46:39.649Z,2.60
2022-08-03T02:49:40.443Z,2.45
2022-08-03T02:51:58.860Z,3.10
2022-08-03T02:54:28.615Z,3.00
2022-08-03T02:56:59.523Z,2.75
2022-08-03T02:59:31.126Z,3.20
2022-08-03T03:02:03.308Z,2.90
2022-08-03T03:04:33.281Z,3.00
2022-08-03T03:07:03.699Z,2.78
2022-08-03T03:09:40.483Z,2.88
2022-08-03T03:12:11.817Z,2.97
2022-08-03T03:14:40.852Z,2.90
2022-08-03T03:17:12.215Z,2.85
2022-08-03T03:19:41.688Z,3.10
2022-08-03T03:22:10.629Z,2.90
2022-08-03T03:24:39.444Z,2.92
2022-08-03T03:27:07.711Z,2.97
2022-08-03T03:29:39.236Z,2.90
2022-08-03T03:32:09.117Z,2.90
2022-08-03T03:34:38.815Z,2.90
2022-08-03T03:37:06.994Z,3.28
2022-08-03T03:39:36.364Z,3.20
2022-08-03T03:42:04.538Z,3.50
2022-08-03T03:44:32.783Z,3.05
2022-08-03T03:47:00.709Z,2.97
2022-08-03T03:49:28.968Z,3.10
2022-08-03T03:51:58.287Z,3.10
2022-08-03T03:54:29.298Z,2.70
2022-08-03T03:56:57.362Z,3.20
2022-08-03T03:59:25.256Z,2.85
2022-08-03T04:01:58.850Z,3.10
2022-08-03T04:04:53.088Z,2.92
2022-08-03T04:07:42.942Z,3.03
2022-08-03T04:10:32.486Z,2.90
2022-08-03T04:13:01.496Z,3.03
2022-08-03T04:15:30.386Z,3.20
2022-08-03T04:18:00.112Z,2.80
2022-08-03T04:20:31.574Z,3.20
2022-08-03T04:23:02.855Z,3.22
2022-08-03T04:25:42.740Z,3.22
2022-08-03T04:28:30.502Z,3.03
2022-08-03T04:31:00.968Z,3.17
2022-08-03T04:33:32.618Z,3.10
2022-08-03T04:36:03.672Z,3.28
2022-08-03T04:38:37.773Z,3.22
2022-08-03T04:41:06.596Z,2.80
2022-08-03T04:43:35.640Z,2.95
2022-08-03T04:46:04.458Z,3.00
2022-08-03T04:48:32.489Z,3.03
2022-08-03T04:51:04.297Z,3.05
2022-08-03T04:53:33.526Z,2.83
2022-08-03T04:56:06.433Z,3.10
2022-08-03T04:58:34.453Z,3.00
2022-08-03T05:01:02.801Z,2.90
2022-08-03T05:03:31.644Z,2.90
2022-08-03T05:06:09.726Z,3.08
2022-08-03T05:08:45.241Z,2.70
2022-08-03T05:11:15.699Z,2.97
2022-08-03T05:13:43.572Z,2.90
2022-08-03T05:16:11.818Z,2.70
2022-08-03T05:18:39.663Z,2.97
2022-08-03T05:21:07.481Z,3.08
2022-08-03T05:23:35.512Z,2.80
2022-08-03T05:26:05.126Z,2.80
2022-08-03T05:28:32.949Z,2.88
2022-08-03T05:31:00.800Z,3.00
2022-08-03T05:33:28.641Z,2.88
2022-08-03T05:36:03.525Z,2.58
2022-08-03T05:38:34.388Z,2.70
2022-08-03T05:41:22.327Z,2.70
2022-08-03T05:43:52.341Z,2.70
2022-08-03T05:46:20.592Z,2.65
2022-08-03T05:48:48.459Z,2.65
2022-08-03T05:51:16.601Z,2.63
2022-08-03T05:53:44.995Z,2.72
2022-08-03T05:56:16.307Z,2.65
2022-08-03T05:58:46.163Z,2.60
2022-08-03T06:01:14.254Z,2.75
2022-08-03T06:03:42.173Z,2.70
2022-08-03T06:06:10.017Z,2.60
2022-08-03T06:08:38.337Z,2.65
2022-08-03T06:11:06.176Z,2.67
2022-08-03T06:13:36.010Z,2.40
2022-08-03T06:16:04.630Z,2.70
2022-08-03T06:18:32.520Z,2.40
2022-08-03T06:21:14.391Z,2.50
2022-08-03T06:23:54.875Z,2.40
2022-08-03T06:26:28.075Z,3.28
2022-08-03T06:28:57.667Z,2.40
2022-08-03T06:31:32.757Z,2.35
2022-08-03T06:34:33.267Z,2.25
2022-08-03T06:36:52.396Z,2.50
2022-08-03T06:39:20.865Z,2.35
2022-08-03T06:41:52.480Z,2.33
2022-08-03T06:44:21.856Z,2.20
2022-08-03T06:46:49.736Z,2.47
2022-08-03T06:49:17.760Z,2.30
2022-08-03T06:52:05.037Z,2.40
2022-08-03T06:54:33.550Z,2.20
2022-08-03T06:57:01.672Z,2.20
2022-08-03T07:00:07.177Z,2.20
2022-08-03T07:02:20.630Z,2.20
2022-08-03T07:04:48.862Z,2.22
2022-08-03T07:07:17.390Z,2.00
2022-08-03T07:09:57.034Z,2.10
2022-08-03T07:12:27.782Z,2.00
2022-08-03T07:15:01.196Z,2.10
2022-08-03T07:17:30.891Z,2.00
2022-08-03T07:19:59.558Z,2.33
2022-08-03T07:22:27.608Z,2.28
2022-08-03T07:24:55.515Z,2.25
2022-08-03T07:27:23.548Z,2.22
2022-08-03T07:29:51.429Z,2.15
2022-08-03T07:32:20.651Z,2.22
2022-08-03T07:34:48.465Z,2.38
2022-08-03T07:37:16.514Z,2.63
2022-08-03T07:39:44.647Z,2.28
2022-08-03T07:42:12.621Z,2.38
2022-08-03T07:44:40.453Z,2.30
2022-08-03T07:47:08.260Z,2.58
2022-08-03T07:49:42.367Z,2.13
2022-08-03T07:52:28.567Z,2.00
2022-08-03T07:54:56.590Z,2.08
2022-08-03T07:57:24.442Z,1.95
2022-08-03T08:00:01.760Z,1.88
2022-08-03T08:02:39.955Z,2.40
2022-08-03T08:05:10.759Z,2.28
2022-08-03T08:07:38.810Z,2.20
2022-08-03T08:10:08.153Z,1.60
2022-08-03T08:12:35.917Z,2.15
2022-08-03T08:15:03.945Z,1.85
2022-08-03T08:17:31.848Z,1.77
2022-08-03T08:19:59.597Z,2.03
2022-08-03T08:22:30.636Z,1.60
2022-08-03T08:25:01.322Z,1.95
2022-08-03T08:28:29.875Z,1.77
2022-08-03T08:30:20.908Z,1.80
2022-08-03T08:32:49.892Z,1.70
2022-08-03T08:35:18.793Z,1.83
2022-08-03T08:37:50.940Z,1.65
2022-08-03T08:40:21.616Z,1.77
2022-08-03T08:42:58.559Z,1.90
2022-08-03T08:45:27.361Z,1.80
2022-08-03T08:48:00.338Z,1.63
2022-08-03T08:50:31.137Z,1.60
2022-08-03T08:53:03.660Z,1.50
2022-08-03T08:55:58.287Z,1.60
2022-08-03T08:58:23.307Z,1.30
2022-08-03T09:00:52.192Z,1.40
2022-08-03T09:03:22.734Z,2.85
2022-08-03T09:05:57.901Z,1.60
2022-08-03T09:08:27.266Z,1.20
2022-08-03T09:10:55.421Z,1.40
2022-08-03T09:13:23.622Z,1.40
2022-08-03T09:16:11.666Z,1.30
2022-08-03T09:18:39.665Z,1.23
2022-08-03T09:21:37.803Z,1.35
2022-08-03T09:24:16.501Z,1.52
2022-08-03T09:26:54.113Z,1.55
2022-08-03T09:29:22.816Z,1.15
2022-08-03T09:31:50.621Z,1.40
2022-08-03T09:34:19.543Z,1.40
2022-08-03T09:36:48.971Z,1.35
2022-08-03T09:39:19.716Z,1.60
2022-08-03T09:42:09.187Z,1.27
2022-08-03T09:44:37.992Z,1.40
2022-08-03T09:47:06.909Z,1.40
2022-08-03T09:49:34.904Z,1.42
2022-08-03T09:52:32.613Z,1.40
2022-08-03T09:55:02.877Z,1.38
2022-08-03T09:57:31.853Z,1.50
2022-08-03T10:00:12.352Z,1.45
2022-08-03T10:02:40.647Z,1.50
2022-08-03T10:05:11.513Z,1.50
2022-08-03T10:07:49.654Z,1.55
2022-08-03T10:10:30.128Z,1.45
2022-08-03T10:16:23.070Z,1.45
2022-08-03T10:18:17.272Z,1.40
2022-08-03T10:20:50.677Z,1.30
2022-08-03T10:23:20.105Z,1.30
2022-08-03T10:25:55.736Z,1.50
2022-08-03T10:28:24.104Z,1.50
2022-08-03T10:30:54.698Z,1.27
2022-08-03T10:33:49.602Z,1.45
2022-08-03T10:36:15.186Z,1.30
2022-08-03T10:38:52.332Z,1.70
2022-08-03T10:41:22.959Z,1.30
2022-08-03T10:43:54.011Z,1.38
2022-08-03T10:46:22.809Z,1.42
2022-08-03T10:48:52.761Z,1.60
2022-08-03T10:51:21.693Z,1.42
2022-08-03T10:53:54.590Z,1.40
2022-08-03T10:57:14.533Z,1.48
2022-08-03T11:00:00.373Z,1.30
2022-08-03T11:03:02.890Z,1.42
2022-08-03T11:05:32.065Z,1.30
2022-08-03T11:08:19.008Z,1.30
2022-08-03T11:10:47.376Z,1.30
2022-08-03T11:13:19.188Z,1.27
2022-08-03T11:15:50.325Z,1.30
2022-08-03T11:18:18.917Z,1.30
2022-08-03T11:20:48.900Z,1.40
2022-08-03T11:23:18.298Z,1.40
2022-08-03T11:26:13.541Z,1.40
2022-08-03T11:28:44.625Z,1.33
2022-08-03T11:31:50.413Z,1.17
2022-08-03T11:34:19.367Z,1.50
2022-08-03T11:37:28.750Z,1.40
2022-08-03T11:39:59.337Z,1.50
2022-08-03T11:42:45.574Z,1.40
2022-08-03T11:45:15.464Z,1.40
2022-08-03T11:47:50.218Z,1.38
2022-08-03T11:50:21.147Z,1.25
2022-08-03T11:52:50.241Z,1.55
2022-08-03T11:55:21.601Z,1.38
2022-08-03T11:59:01.705Z,1.40
2022-08-03T12:00:38.843Z,1.20
2022-08-03T12:03:09.514Z,1.02
2022-08-03T12:05:52.289Z,1.10
2022-08-03T12:08:32.717Z,1.30
2022-08-03T12:11:03.108Z,1.30
2022-08-03T12:14:44.423Z,1.45
2022-08-03T12:16:28.703Z,1.27
2022-08-03T12:18:58.346Z,1.45
2022-08-03T12:21:26.722Z,1.20
2022-08-03T12:23:58.982Z,1.50
2022-08-03T12:26:27.319Z,1.40
2022-08-03T12:28:55.497Z,1.48
2022-08-03T12:31:23.584Z,1.48
2022-08-03T12:34:02.022Z,1.45
2022-08-03T12:36:30.984Z,1.42
2022-08-03T12:39:00.098Z,1.40
2022-08-03T12:41:34.182Z,1.40
2022-08-03T12:44:03.576Z,1.30
2022-08-03T12:46:34.293Z,1.30
2022-08-03T12:49:06.799Z,1.10
2022-08-03T12:51:36.829Z,1.15
2022-08-03T12:54:06.486Z,1.30
2022-08-03T12:56:34.612Z,1.10
2022-08-03T12:59:02.564Z,1.40
2022-08-03T13:01:38.243Z,1.15
2022-08-03T13:04:33.305Z,1.20
2022-08-03T13:07:03.531Z,1.33
2022-08-03T13:09:33.111Z,1.48
2022-08-03T13:12:08.749Z,1.42
2022-08-03T13:14:36.737Z,1.40
2022-08-03T13:17:06.258Z,1.35
2022-08-03T13:19:36.317Z,1.60
2022-08-03T13:22:12.405Z,1.30
2022-08-03T13:24:40.596Z,1.92
2022-08-03T13:28:04.928Z,1.60
2022-08-03T13:29:57.508Z,1.67
2022-08-03T13:32:25.505Z,1.60
2022-08-03T13:34:54.733Z,1.30
2022-08-03T13:37:23.095Z,1.42
2022-08-03T13:39:59.589Z,1.50
2022-08-03T13:42:31.396Z,1.40
2022-08-03T13:45:00.017Z,1.15
2022-08-03T13:47:28.321Z,1.35
2022-08-03T13:50:01.807Z,1.20
2022-08-03T13:52:31.971Z,1.20
2022-08-03T13:55:00.668Z,1.33
2022-08-03T13:58:04.187Z,1.20
2022-08-03T14:00:27.344Z,1.30
2022-08-03T14:03:16.070Z,1.20
2022-08-03T14:05:45.500Z,1.25
2022-08-03T14:08:13.706Z,1.45
2022-08-03T14:10:43.949Z,1.17
2022-08-03T14:13:12.890Z,1.20
2022-08-03T14:15:50.047Z,1.95
2022-08-03T14:18:29.136Z,1.40
2022-08-03T14:21:06.594Z,1.50
2022-08-03T14:23:35.814Z,1.45
2022-08-03T14:26:03.965Z,1.10
2022-08-03T14:28:32.119Z,1.30
2022-08-03T14:31:00.400Z,1.17
2022-08-03T14:33:29.329Z,1.20
2022-08-03T14:35:57.792Z,1.30
2022-08-03T14:38:27.001Z,1.27
2022-08-03T14:40:54.881Z,1.50
2022-08-03T14:43:22.797Z,1.23
2022-08-03T14:45:52.425Z,1.77
2022-08-03T14:50:29.294Z,1.40
2022-08-03T14:51:08.426Z,1.40
2022-08-03T14:53:37.597Z,1.30
2022-08-03T14:56:10.096Z,1.40
2022-08-03T14:58:39.240Z,1.20
2022-08-03T15:02:05.604Z,1.20
2022-08-03T15:03:55.604Z,1.20
2022-08-03T15:06:23.504Z,1.40
2022-08-03T15:09:13.861Z,1.20
2022-08-03T15:11:41.072Z,1.40
2022-08-03T15:14:09.683Z,1.50
2022-08-03T15:16:38.077Z,1.50
2022-08-03T15:20:03.917Z,1.20
2022-08-03T15:21:53.756Z,1.33
2022-08-03T15:24:22.977Z,1.23
2022-08-03T15:26:52.233Z,1.15
2022-08-03T15:30:04.715Z,1.30
2022-08-03T15:32:09.560Z,2.33
2022-08-03T15:34:37.723Z,1.60
2022-08-03T15:37:15.098Z,1.80
2022-08-03T15:39:59.518Z,1.40
2022-08-03T15:42:29.484Z,1.70
2022-08-03T15:44:58.102Z,1.50
2022-08-03T15:47:25.944Z,1.50
2022-08-03T15:49:53.810Z,1.50
2022-08-03T15:52:21.695Z,1.40
2022-08-03T15:54:50.834Z,1.10
2022-08-03T15:57:19.062Z,1.48
2022-08-03T15:59:47.159Z,1.50
2022-08-03T16:02:15.237Z,1.40
2022-08-03T16:04:43.053Z,1.27
2022-08-03T16:07:12.803Z,1.40
2022-08-03T16:09:43.304Z,1.52
2022-08-03T16:12:16.426Z,2.50
2022-08-03T16:14:54.011Z,2.13
2022-08-03T16:17:24.240Z,1.30
2022-08-03T16:19:54.947Z,1.45
2022-08-03T16:22:24.055Z,1.70
2022-08-03T16:24:52.271Z,1.85
2022-08-03T16:27:37.133Z,1.50
2022-08-03T16:30:12.232Z,1.63
2022-08-03T16:32:40.154Z,1.13
2022-08-03T16:35:08.600Z,1.30
2022-08-03T16:37:38.632Z,1.77
2022-08-03T16:40:17.322Z,2.00
2022-08-03T16:42:48.416Z,1.52
2022-08-03T16:45:16.173Z,1.73
2022-08-03T16:47:44.038Z,1.33
2022-08-03T16:50:19.013Z,1.60
2022-08-03T16:52:48.497Z,1.30
2022-08-03T16:55:42.881Z,1.65
2022-08-03T16:58:07.490Z,2.70
2022-08-03T17:00:41.966Z,1.40
2022-08-03T17:03:12.825Z,1.40
2022-08-03T17:05:49.711Z,1.48
2022-08-03T17:08:26.782Z,1.58
2022-08-03T17:10:56.465Z,1.90
2022-08-03T17:13:27.613Z,1.90
2022-08-03T17:16:10.336Z,1.60
2022-08-03T17:18:42.204Z,1.60
2022-08-03T17:21:17.142Z,1.88
2022-08-03T17:23:50.833Z,1.80
2022-08-03T17:26:22.362Z,2.35
2022-08-03T17:28:57.395Z,1.80
2022-08-03T17:31:31.279Z,1.35
2022-08-03T17:34:01.395Z,1.67
2022-08-03T17:36:54.006Z,1.40
2022-08-03T17:39:27.041Z,1.67
2022-08-03T17:42:39.130Z,1.60
2022-08-03T17:44:58.294Z,1.80
2022-08-03T17:47:41.233Z,1.60
2022-08-03T17:50:24.983Z,1.58
2022-08-03T17:53:07.106Z,1.30
2022-08-03T17:55:56.993Z,1.67
2022-08-03T17:58:41.407Z,1.58
2022-08-03T18:02:00.145Z,1.70
2022-08-03T18:04:29.876Z,1.75
2022-08-03T18:07:11.303Z,1.55
2022-08-03T18:10:03.508Z,1.50
2022-08-03T18:12:41.536Z,1.70
2022-08-03T18:15:21.000Z,1.92
2022-08-03T18:17:55.804Z,1.90
2022-08-03T18:20:40.418Z,1.58
2022-08-03T18:23:24.729Z,1.65
2022-08-03T18:26:01.513Z,1.67
2022-08-03T18:28:30.268Z,1.73
2022-08-03T18:30:59.153Z,1.60
2022-08-03T18:34:17.262Z,1.80
2022-08-03T18:36:22.179Z,1.70
2022-08-03T18:38:59.838Z,1.60
2022-08-03T18:41:32.506Z,1.70
2022-08-03T18:44:08.394Z,1.40
2022-08-03T18:47:07.420Z,1.60
2022-08-03T18:49:53.791Z,1.55
2022-08-03T18:52:28.864Z,1.70
2022-08-03T18:55:11.150Z,2.28
2022-08-03T18:57:53.366Z,2.05
2022-08-03T19:00:24.943Z,1.67
2022-08-03T19:03:12.450Z,1.70
2022-08-03T19:06:03.058Z,2.60
2022-08-03T19:08:45.207Z,1.88
2022-08-03T19:11:27.871Z,2.00
2022-08-03T19:13:59.173Z,1.70
2022-08-03T19:16:32.632Z,1.70
2022-08-03T19:21:34.953Z,1.70
2022-08-03T19:24:09.314Z,2.00
2022-08-03T19:26:39.411Z,1.70
2022-08-03T19:29:11.369Z,1.83
2022-08-03T19:31:58.905Z,1.60
2022-08-03T19:34:29.217Z,1.70
2022-08-03T19:36:59.230Z,1.80
2022-08-03T19:39:27.676Z,2.00
2022-08-03T19:42:13.498Z,1.80
2022-08-03T19:44:55.536Z,1.60
2022-08-03T19:47:29.648Z,1.85
2022-08-03T19:50:06.046Z,2.13
2022-08-03T19:52:42.268Z,1.90
2022-08-03T19:55:12.419Z,1.65
2022-08-03T19:57:43.385Z,1.55
2022-08-03T20:00:13.818Z,1.50
2022-08-03T20:02:43.026Z,1.60
2022-08-03T20:05:15.510Z,1.58
2022-08-03T20:07:48.521Z,1.50
2022-08-03T20:10:17.944Z,2.03
2022-08-03T20:12:46.751Z,1.50
2022-08-03T20:15:22.171Z,1.60
2022-08-03T20:17:54.701Z,1.58
2022-08-03T20:20:40.052Z,2.10
2022-08-03T20:23:16.620Z,1.60
2022-08-03T20:25:58.611Z,1.70
2022-08-03T20:28:32.139Z,1.77
2022-08-03T20:31:00.169Z,1.70
2022-08-03T20:33:48.792Z,1.58
2022-08-03T20:36:17.762Z,1.83
2022-08-03T20:38:48.190Z,2.13
2022-08-03T20:41:17.094Z,2.42
2022-08-03T20:43:45.159Z,2.33
2022-08-03T20:46:30.929Z,2.40
2022-08-03T20:49:04.667Z,2.10
2022-08-03T20:51:50.051Z,2.20
2022-08-03T20:54:29.389Z,2.10
2022-08-03T20:56:58.512Z,2.03
2022-08-03T20:59:34.838Z,2.25
2022-08-03T21:02:19.211Z,2.30
2022-08-03T21:04:48.099Z,2.22
2022-08-03T21:07:19.782Z,2.67
2022-08-03T21:09:57.122Z,2.60
2022-08-03T21:12:37.189Z,2.75
2022-08-03T21:15:10.160Z,2.70
2022-08-03T21:18:00.579Z,2.42
2022-08-03T21:20:33.228Z,2.90
2022-08-03T21:23:01.817Z,2.40
2022-08-03T21:25:32.930Z,2.40
2022-08-03T21:28:02.105Z,2.50
2022-08-03T21:30:31.383Z,2.50
2022-08-03T21:32:59.794Z,2.58
2022-08-03T21:35:28.235Z,2.30
2022-08-03T21:38:10.032Z,2.75
2022-08-03T21:40:40.350Z,2.40
2022-08-03T21:43:08.762Z,2.10
2022-08-03T21:45:47.981Z,2.75
2022-08-03T21:48:17.567Z,2.10
2022-08-03T21:50:46.639Z,2.20
2022-08-03T21:53:16.218Z,2.22
2022-08-03T21:55:52.026Z,2.05
2022-08-03T21:58:29.500Z,2.15
2022-08-03T22:00:59.152Z,2.50
2022-08-03T22:03:27.826Z,2.55
2022-08-03T22:06:04.678Z,2.20
2022-08-03T22:08:35.093Z,2.95
2022-08-03T22:11:04.658Z,2.60
2022-08-03T22:13:43.878Z,2.60
2022-08-03T22:16:14.431Z,2.63
2022-08-03T22:18:48.326Z,2.75
2022-08-03T22:21:27.800Z,2.70
2022-08-03T22:24:05.967Z,3.25
2022-08-03T22:26:37.076Z,3.42
2022-08-03T22:29:08.660Z,3.45
2022-08-03T22:31:58.554Z,3.60
2022-08-03T22:34:27.345Z,3.78
2022-08-03T22:37:01.768Z,3.63
2022-08-03T22:39:30.477Z,3.35
2022-08-03T22:42:00.392Z,3.17
2022-08-03T22:44:29.232Z,2.75
2022-08-03T22:46:57.173Z,3.05
2022-08-03T22:49:25.229Z,2.40
2022-08-03T22:51:54.503Z,2.45
2022-08-03T22:54:23.410Z,2.60
2022-08-03T22:56:51.929Z,2.45
2022-08-03T22:59:38.997Z,2.60
2022-08-03T23:02:16.021Z,2.72
2022-08-03T23:04:51.991Z,2.50
2022-08-03T23:07:29.202Z,2.63
2022-08-03T23:09:58.305Z,2.55
2022-08-03T23:12:26.897Z,3.00
2022-08-03T23:14:58.632Z,2.50
2022-08-03T23:17:28.117Z,2.65
2022-08-03T23:20:01.155Z,2.80
2022-08-03T23:22:30.850Z,2.60
2022-08-03T23:25:01.360Z,2.70
2022-08-03T23:27:29.626Z,2.80
2022-08-03T23:29:59.976Z,3.00
2022-08-03T23:32:30.334Z,3.20
2022-08-03T23:35:18.032Z,3.40
2022-08-03T23:38:07.271Z,2.88
2022-08-03T23:40:34.971Z,3.08
2022-08-03T23:43:03.789Z,2.70
2022-08-03T23:45:37.199Z,3.00
2022-08-03T23:48:05.588Z,2.78
2022-08-03T23:50:41.423Z,2.97
2022-08-03T23:53:18.043Z,2.78
2022-08-03T23:55:56.934Z,3.10
2022-08-03T23:58:38.423Z,2.70
